Stormwatcher's Retreat Logo




                  Temp     Hi    Low   Out    Dew  Wind  Wind   Wind    Hi    Hi   Wind   Heat    THW   THSW                Rain  Solar   Solar Hi Solar   UV    UV    Hi     Heat    Cool    In     In    In     In     In   In Air          Wind  Wind    ISS   Arc.
  Date    Time     Out   Temp   Temp   Hum    Pt. Speed   Dir    Run Speed   Dir  Chill  Index  Index  Index   Bar    Rain  Rate   Rad.  Energy    Rad.  Index  Dose   UV     D-D     D-D    Temp   Hum    Dew   Heat    EMC Density     ET   Samp   Tx   Recept  Int.
------------------------------------------------------------------------------------------------------------------------------------------------------------------------------------------------------------------------------------------------------------------------
 1/22/21 12:10a   45.2   45.3   45.1    86   41.3   2.0     E   0.33   6.0     E   45.2   45.2   45.2   42.2  29.945  0.00  0.00     0     0.00      0     0.0  0.00   0.0   0.137   0.000   68.4    48   47.9   66.9   8.88  .0744    0.000   200    7    100.0   10 
 1/22/21 12:20a   44.9   45.2   44.8    85   40.7   1.0     E   0.17   3.0     E   44.9   44.8   44.8   41.8  29.942  0.00  0.00     0     0.00      0     0.0  0.00   0.0   0.140   0.000   68.3    48   47.8   66.8   8.88  .0744    0.000   200    7    100.0   10 
 1/22/21 12:30a   44.7   44.9   44.5    86   40.8   2.0   ESE   0.33   9.0   ESE   44.7   44.6   44.6   41.6  29.939  0.00  0.00     0     0.00      0     0.0  0.00   0.0   0.141   0.000   68.2    48   47.8   66.7   8.89  .0744    0.000   200    7    100.0   10 
 1/22/21 12:40a   44.9   45.0   44.6    86   41.0   6.0     E   1.00  12.0   ESE   41.6   44.8   41.5   38.5  29.936  0.00  0.00     0     0.00      0     0.0  0.00   0.0   0.140   0.000   68.2    48   47.8   66.7   8.89  .0744    0.000   200    7    100.0   10 
 1/22/21 12:50a   45.0   45.1   44.9    86   41.1   8.0     E   1.33  13.0     E   40.6   44.9   40.5   37.7  29.936  0.00  0.00     0     0.00      0     0.0  0.00   0.0   0.139   0.000   68.1    48   47.7   66.6   8.89  .0744    0.000   203    7    100.0   10 
 1/22/21  1:00a   45.0   45.1   45.0    86   41.1   7.0   ESE   1.17  12.0   ESE   41.2   44.9   41.1   38.1  29.938  0.00  0.00     0     0.00      0     0.0  0.00   0.0   0.139   0.000   68.1    48   47.7   66.6   8.89  .0744    0.001   200    7    100.0   10 
 1/22/21  1:10a   45.1   45.1   45.0    86   41.2   6.0     E   1.00   9.0     E   41.8   45.0   41.7   38.7  29.940  0.00  0.00     0     0.00      0     0.0  0.00   0.0   0.138   0.000   68.0    48   47.6   66.5   8.89  .0744    0.000   202    7    100.0   10 
 1/22/21  1:20a   45.3   45.4   45.1    86   41.4   6.0     E   1.00  12.0     E   42.1   45.3   42.1   39.1  29.941  0.00  0.00     0     0.00      0     0.0  0.00   0.0   0.137   0.000   67.9    48   47.5   66.4   8.89  .0744    0.000   201    7    100.0   10 
 1/22/21  1:30a   45.5   45.5   45.3    86   41.6   4.0   ENE   0.67  10.0    NE   43.7   45.5   43.7   40.7  29.949  0.00  0.00     0     0.00      0     0.0  0.00   0.0   0.135   0.000   67.9    48   47.5   66.4   8.89  .0745    0.000   202    7    100.0   10 
 1/22/21  1:40a   45.2   45.5   45.2    86   41.3   3.0   ENE   0.50   7.0     E   44.2   45.2   44.2   41.2  29.948  0.00  0.00     0     0.00      0     0.0  0.00   0.0   0.137   0.000   67.8    48   47.4   66.3   8.89  .0745    0.000   204    7    100.0   10 
 1/22/21  1:50a   44.9   45.2   44.9    86   41.0   2.0    NE   0.33   5.0    NE   44.9   44.8   44.8   41.8  29.952  0.00  0.00     0     0.00      0     0.0  0.00   0.0   0.140   0.000   67.8    48   47.4   66.3   8.89  .0745    0.000   203    7    100.0   10 
 1/22/21  2:00a   44.8   45.0   44.8    86   40.9   1.0    NE   0.17   2.0    NE   44.8   44.7   44.7   41.7  29.951  0.00  0.00     0     0.00      0     0.0  0.00   0.0   0.140   0.000   67.7    48   47.3   66.2   8.90  .0745    0.001   201    7    100.0   10 
 1/22/21  2:10a   44.6   44.8   44.6    86   40.7   0.0    NE   0.00   2.0    NE   44.6   44.5   44.5   41.5  29.956  0.00  0.00     0     0.00      0     0.0  0.00   0.0   0.142   0.000   67.7    48   47.3   66.2   8.90  .0745    0.000   205    7    100.0   10 
 1/22/21  2:20a   44.4   44.6   44.4    87   40.8   1.0    NE   0.17   3.0    NE   44.4   44.4   44.4   41.4  29.962  0.00  0.00     0     0.00      0     0.0  0.00   0.0   0.143   0.000   67.6    48   47.2   66.1   8.90  .0745    0.000   203    7    100.0   10 
 1/22/21  2:30a   44.1   44.4   44.1    87   40.5   1.0    NE   0.17   3.0    NE   44.1   44.1   44.1   41.1  29.964  0.00  0.00     0     0.00      0     0.0  0.00   0.0   0.145   0.000   67.6    48   47.2   66.1   8.90  .0746    0.000   203    7    100.0   10 
 1/22/21  2:40a   43.8   44.1   43.8    87   40.2   0.0   ---   0.00   0.0   ---   43.8   43.8   43.8   40.8  29.964  0.00  0.00     0     0.00      0     0.0  0.00   0.0   0.147   0.000   67.5    48   47.1   65.9   8.90  .0746    0.000   202    7    100.0   10 
 1/22/21  2:50a   43.7   43.8   43.7    88   40.4   0.0   ---   0.00   0.0   ---   43.7   43.7   43.7   40.7  29.963  0.00  0.00     0     0.00      0     0.0  0.00   0.0   0.148   0.000   67.5    48   47.1   65.9   8.90  .0746    0.000   200    7    100.0   10 
 1/22/21  3:00a   43.6   43.8   43.6    87   40.0   0.0    NE   0.00   1.0    NE   43.6   43.6   43.6   40.6  29.967  0.00  0.00     0     0.00      0     0.0  0.00   0.0   0.149   0.000   67.4    48   47.0   65.8   8.90  .0746    0.000   202    7    100.0   10 
 1/22/21  3:10a   43.3   43.7   43.3    87   39.7   0.0    NE   0.00   1.0    NE   43.3   43.3   43.3   40.3  29.964  0.00  0.00     0     0.00      0     0.0  0.00   0.0   0.151   0.000   67.4    48   47.0   65.8   8.90  .0746    0.000   199    7    100.0   10 
 1/22/21  3:20a   42.8   43.3   42.7    87   39.2   0.0   ---   0.00   0.0   ---   42.8   42.7   42.7   39.7  29.961  0.00  0.00     0     0.00      0     0.0  0.00   0.0   0.154   0.000   67.3    48   46.9   65.7   8.90  .0746    0.000   203    7    100.0   10 
 1/22/21  3:30a   42.4   42.8   42.3    87   38.8   0.0   ---   0.00   0.0   ---   42.4   42.3   42.3   39.2  29.961  0.00  0.00     0     0.00      0     0.0  0.00   0.0   0.157   0.000   67.3    48   46.9   65.7   8.90  .0746    0.000   200    7    100.0   10 
 1/22/21  3:40a   41.8   42.3   41.8    88   38.5   0.0   ---   0.00   0.0   ---   41.8   41.7   41.7   38.6  29.960  0.00  0.00     0     0.00      0     0.0  0.00   0.0   0.161   0.000   67.2    48   46.8   65.6   8.91  .0746    0.000   204    7    100.0   10 
 1/22/21  3:50a   41.5   41.8   41.5    88   38.2   1.0   ESE   0.17   5.0   ESE   41.5   41.4   41.4   38.3  29.964  0.00  0.00     0     0.00      0     0.0  0.00   0.0   0.163   0.000   67.1    48   46.7   65.5   8.91  .0746    0.000   202    7    100.0   10 
 1/22/21  4:00a   41.6   41.6   41.4    89   38.6   1.0   ESE   0.17   3.0   ESE   41.6   41.5   41.5   38.4  29.960  0.00  0.00     0     0.00      0     0.0  0.00   0.0   0.163   0.000   67.1    48   46.7   65.5   8.91  .0746    0.000   204    7    100.0   10 
 1/22/21  4:10a   41.6   41.6   41.6    89   38.6   0.0   ESE   0.00   3.0   ESE   41.6   41.5   41.5   38.4  29.956  0.00  0.00     0     0.00      0     0.0  0.00   0.0   0.163   0.000   67.0    48   46.7   65.4   8.91  .0746    0.000   202    7    100.0   10 
 1/22/21  4:20a   41.5   41.6   41.5    89   38.5   0.0   ---   0.00   0.0   ---   41.5   41.4   41.4   38.3  29.953  0.00  0.00     0     0.00      0     0.0  0.00   0.0   0.163   0.000   66.9    48   46.6   65.3   8.91  .0746    0.000   204    7    100.0   10 
 1/22/21  4:30a   41.1   41.6   41.1    89   38.1   0.0   ESE   0.00   3.0   ESE   41.1   41.0   41.0   37.9  29.949  0.00  0.00     0     0.00      0     0.0  0.00   0.0   0.166   0.000   66.9    48   46.6   65.3   8.91  .0746    0.000   202    7    100.0   10 
 1/22/21  4:40a   41.5   41.5   41.1    90   38.8   3.0   ESE   0.50   6.0   ESE   40.1   41.5   40.1   37.0  29.949  0.00  0.00     0     0.00      0     0.0  0.00   0.0   0.163   0.000   66.8    48   46.5   65.2   8.91  .0747    0.000   203    7    100.0   10 
 1/22/21  4:50a   41.8   41.8   41.5    90   39.1   3.0   ESE   0.50   6.0   ESE   40.4   41.8   40.4   37.4  29.948  0.00  0.00     0     0.00      0     0.0  0.00   0.0   0.161   0.000   66.8    48   46.5   65.2   8.91  .0746    0.000   202    7    100.0   10 
 1/22/21  5:00a   42.0   42.0   41.7    91   39.6   3.0   ESE   0.50   7.0    SE   40.6   42.0   40.6   37.6  29.947  0.00  0.00     0     0.00      0     0.0  0.00   0.0   0.160   0.000   66.7    48   46.4   65.0   8.92  .0747    0.000   199    7    100.0   10 
 1/22/21  5:10a   42.4   42.4   42.0    90   39.7   5.0   ESE   0.83  10.0     E   39.3   42.4   39.3   36.3  29.948  0.00  0.00     0     0.00      0     0.0  0.00   0.0   0.157   0.000   66.6    48   46.3   64.9   8.92  .0747    0.000   203    7    100.0   10 
 1/22/21  5:20a   42.4   42.4   42.3    91   40.0   4.0   ESE   0.67   8.0   ESE   40.1   42.4   40.1   37.1  29.948  0.00  0.00     0     0.00      0     0.0  0.00   0.0   0.157   0.000   66.6    48   46.3   64.9   8.92  .0747    0.000   203    7    100.0   10 
 1/22/21  5:30a   42.6   42.6   42.4    91   40.2   4.0   ESE   0.67   9.0   ESE   40.3   42.6   40.3   37.3  29.950  0.00  0.00     0     0.00      0     0.0  0.00   0.0   0.156   0.000   66.6    48   46.3   64.9   8.92  .0747    0.000   203    7    100.0   10 
 1/22/21  5:40a   42.5   42.6   42.5    90   39.8   6.0   ESE   1.00  10.0   ESE   38.7   42.5   38.7   35.7  29.948  0.00  0.00     0     0.00      0     0.0  0.00   0.0   0.156   0.000   66.7    47   45.8   64.9   8.82  .0747    0.000   203    7    100.0   10 
 1/22/21  5:50a   42.3   42.5   42.3    90   39.6   6.0   ESE   1.00  10.0     E   38.5   42.3   38.5   35.5  29.949  0.00  0.00     0     0.00      0     0.0  0.00   0.0   0.158   0.000   67.0    47   46.1   65.3   8.81  .0746    0.000   202    7    100.0   10 
 1/22/21  6:00a   42.4   42.4   42.2    91   40.0   5.0   ESE   0.83  10.0   ESE   39.3   42.4   39.3   36.3  29.949  0.00  0.00     0     0.00      0     0.0  0.00   0.0   0.157   0.000   67.2    47   46.3   65.5   8.81  .0746    0.000   203    7    100.0   10 
 1/22/21  6:10a   42.6   42.6   42.3    91   40.2   5.0   ESE   0.83  10.0     E   39.5   42.6   39.5   36.5  29.953  0.00  0.00     0     0.00      0     0.0  0.00   0.0   0.156   0.000   67.5    47   46.6   65.8   8.80  .0746    0.000   204    7    100.0   10 
 1/22/21  6:20a   42.7   42.7   42.6    91   40.3   3.0   ESE   0.50   7.0   ESE   41.4   42.7   41.4   38.4  29.956  0.00  0.00     0     0.00      0     0.0  0.00   0.0   0.155   0.000   67.8    47   46.8   66.2   8.79  .0745    0.000   202    7    100.0   10 
 1/22/21  6:30a   42.6   42.8   42.6    90   39.9   4.0   ESE   0.67   9.0    SE   40.3   42.6   40.3   37.3  29.962  0.00  0.00     0     0.00      0     0.0  0.00   0.0   0.156   0.000   68.0    47   47.0   66.4   8.79  .0745    0.000   203    7    100.0   10 
 1/22/21  6:40a   42.7   42.7   42.6    90   40.0   3.0   ESE   0.50   7.0   ESE   41.4   42.7   41.4   38.4  29.965  0.00  0.00     0     0.00      0     0.0  0.00   0.0   0.155   0.000   68.3    47   47.3   66.7   8.78  .0745    0.000   202    7    100.0   10 
 1/22/21  6:50a   42.8   42.9   42.7    90   40.1   1.0   ESE   0.17   6.0    SE   42.8   42.8   42.8   39.8  29.969  0.00  0.00     0     0.00      0     0.0  0.00   0.0   0.154   0.000   68.5    47   47.5   66.8   8.78  .0744    0.000   201    7    100.0   10 
 1/22/21  7:00a   42.9   42.9   42.8    89   39.9   0.0   ESE   0.00   2.0   ESE   42.9   42.9   42.9   39.9  29.973  0.00  0.00     0     0.00      0     0.0  0.00   0.0   0.153   0.000   68.7    47   47.6   67.0   8.78  .0744    0.000   204    7    100.0   10 
 1/22/21  7:10a   42.6   42.9   42.6    89   39.6   0.0   ESE   0.00   1.0   ESE   42.6   42.6   42.6   39.6  29.973  0.00  0.00     0     0.00      0     0.0  0.00   0.0   0.156   0.000   69.0    47   47.9   67.3   8.77  .0744    0.000   202    7    100.0   10 
 1/22/21  7:20a   42.1   42.6   42.0    88   38.8   0.0   ESE   0.00   2.0   ESE   42.1   42.0   42.0   38.9  29.976  0.00  0.00     0     0.00      0     0.0  0.00   0.0   0.159   0.000   69.1    47   48.0   67.4   8.77  .0743    0.000   204    7    100.0   10 
 1/22/21  7:30a   41.5   42.1   41.5    88   38.2   1.0   ESE   0.17   2.0   ESE   41.5   41.4   41.4   38.3  29.978  0.00  0.00     0     0.00      0     0.0  0.00   0.0   0.163   0.000   69.1    47   48.0   67.4   8.77  .0744    0.000   204    7    100.0   10 
 1/22/21  7:40a   41.1   41.5   41.0    89   38.1   0.0   ESE   0.00   1.0   ESE   41.1   41.0   41.0   37.9  29.980  0.00  0.00     0     0.00      0     0.0  0.00   0.0   0.166   0.000   69.2    47   48.1   67.4   8.77  .0743    0.000   203    7    100.0   10 
 1/22/21  7:50a   40.6   41.1   40.6    89   37.6   1.0   ESE   0.17   3.0   ESE   40.6   40.5   40.5   37.4  29.973  0.00  0.00     0     0.00      0     0.0  0.00   0.0   0.169   0.000   69.2    47   48.1   67.4   8.77  .0743    0.000   202    7    100.0   10 
 1/22/21  8:00a   40.3   40.7   40.2    89   37.3   1.0   ESE   0.17   2.0   ESE   40.3   40.2   40.2   37.2  29.969  0.00  0.00     5     0.07      7     0.0  0.00   0.0   0.172   0.000   69.2    47   48.1   67.4   8.77  .0743    0.000   202    7    100.0   10 
 1/22/21  8:10a   39.9   40.3   39.9    89   36.9   0.0   ESE   0.00   2.0   ESE   39.9   39.8   39.8   36.8  29.971  0.00  0.00     8     0.11     11     0.0  0.00   0.0   0.174   0.000   69.3    47   48.2   67.5   8.76  .0743    0.000   203    7    100.0   10 
 1/22/21  8:20a   39.9   40.0   39.8    90   37.2   0.0   ESE   0.00   1.0   ESE   39.9   39.8   39.8   37.0  29.974  0.00  0.00    13     0.19     16     0.0  0.00   0.0   0.174   0.000   69.4    47   48.3   67.6   8.76  .0743    0.000   202    7    100.0   10 
 1/22/21  8:30a   39.8   39.9   39.7    90   37.1   0.0   ESE   0.00   2.0   ESE   39.8   39.7   39.7   37.0  29.977  0.00  0.00    18     0.26     21     0.0  0.00   0.0   0.175   0.000   69.4    47   48.3   67.6   8.76  .0743    0.000   204    7    100.0   10 
 1/22/21  8:40a   39.7   39.8   39.7    90   37.0   0.0   ESE   0.00   2.0   ESE   39.7   39.6   39.6   37.1  29.977  0.00  0.00    27     0.39     32     0.0  0.00   0.0   0.176   0.000   69.5    47   48.4   67.6   8.76  .0743    0.000   203    7    100.0   10 
 1/22/21  8:50a   39.8   39.8   39.7    90   37.1   0.0   ESE   0.00   1.0   ESE   39.8   39.7   39.7   37.5  29.980  0.00  0.00    37     0.53     40     0.0  0.00   0.0   0.175   0.000   69.6    47   48.5   67.7   8.76  .0743    0.000   203    7    100.0   10 
 1/22/21  9:00a   40.0   40.0   39.8    91   37.6   0.0   ESE   0.00   2.0   ESE   40.0   39.9   39.9   39.2  29.981  0.00  0.00    35     0.50     39     0.0  0.00   0.0   0.174   0.000   69.7    47   48.6   67.8   8.76  .0743    0.000   203    7    100.0   10 
 1/22/21  9:10a   40.4   40.4   40.0    91   38.0   0.0   ESE   0.00   1.0   ESE   40.4   40.3   40.3   40.0  29.982  0.00  0.00    43     0.62     60     0.0  0.00   0.0   0.171   0.000   69.8    47   48.7   67.9   8.75  .0742    0.000   201    7    100.0   10 
 1/22/21  9:20a   40.9   41.0   40.4    91   38.5   0.0   ---   0.00   0.0   ---   40.9   40.8   40.8   40.6  29.982  0.00  0.00    46     0.66     53     0.0  0.00   0.0   0.167   0.000   69.8    47   48.7   67.9   8.75  .0742    0.000   201    7    100.0   10 
 1/22/21  9:30a   41.9   41.9   41.0    92   39.7   0.0   ---   0.00   0.0   ---   41.9   41.9   41.9   42.7  29.985  0.00  0.00    68     0.97     93     0.0  0.00   0.0   0.160   0.000   69.8    47   48.7   67.9   8.75  .0743    0.000   202    7    100.0   10 
 1/22/21  9:40a   42.7   42.7   41.9    92   40.5   0.0    NE   0.00   1.0   NNE   42.7   42.7   42.7   44.1  29.987  0.00  0.00    83     1.19     98     0.0  0.00   0.0   0.155   0.000   69.7    47   48.6   67.8   8.76  .0743    0.000   203    7    100.0   10 
 1/22/21  9:50a   43.0   43.1   42.7    92   40.8   0.0    NE   0.00   2.0    NE   43.0   43.0   43.0   43.7  29.990  0.00  0.00    66     0.95     91     0.0  0.00   0.0   0.153   0.000   69.7    47   48.6   67.8   8.76  .0743    0.000   204    7    100.0   10 
 1/22/21 10:00a   43.3   43.3   43.1    91   40.8   0.0    NE   0.00   1.0    NE   43.3   43.3   43.3   43.7  29.992  0.00  0.00    61     0.87     69     0.0  0.00   0.0   0.151   0.000   69.6    47   48.5   67.7   8.76  .0743    0.001   202    7    100.0   10 
 1/22/21 10:10a   43.6   43.6   43.3    91   41.1   0.0   ---   0.00   0.0   ---   43.6   43.7   43.7   45.4  29.994  0.00  0.00    94     1.35    127     0.0  0.00   0.0   0.149   0.000   69.7    47   48.6   67.8   8.76  .0743    0.000   202    7    100.0   10 
 1/22/21 10:20a   44.3   44.3   43.6    92   42.1   1.0   ENE   0.17   4.0   NNE   44.3   44.4   44.4   47.2  29.995  0.00  0.00   123     1.76    141     0.1  0.01   0.5   0.144   0.000   69.8    47   48.7   67.9   8.75  .0743    0.000   200    7    100.0   10 
 1/22/21 10:30a   45.3   45.3   44.3    90   42.5   5.0    NE   0.83  10.0   NNE   42.7   45.4   42.8   45.7  30.000  0.00  0.00   127     1.82    134     0.3  0.02   0.5   0.137   0.000   69.9    47   48.7   67.9   8.75  .0743    0.000   202    7    100.0   10 
 1/22/21 10:40a   46.2   46.2   45.3    89   43.1   4.0    NE   0.67   8.0     N   44.4   46.3   44.5   48.1  30.000  0.00  0.00   147     2.11    155     0.5  0.04   0.5   0.131   0.000   69.9    47   48.7   67.9   8.75  .0743    0.000   199    7    100.0   10 
 1/22/21 10:50a   46.7   46.7   46.2    87   43.0   6.0   NNE   1.00  10.0    NE   43.7   46.8   43.8   47.9  30.003  0.00  0.00   162     2.32    169     0.5  0.04   0.5   0.127   0.000   69.9    47   48.7   67.9   8.75  .0743    0.000   199    7    100.0   10 
 1/22/21 11:00a   47.0   47.0   46.7    85   42.7   6.0    NE   1.00  10.0   NNE   44.1   47.0   44.1   48.4  30.001  0.00  0.00   173     2.48    174     0.5  0.04   0.6   0.125   0.000   69.9    46   48.2   67.8   8.65  .0743    0.003   203    7    100.0   10 
 1/22/21 11:10a   47.2   47.2   46.9    84   42.6   6.0    NE   1.00  10.0   NNE   44.3   47.2   44.3   48.5  30.000  0.00  0.00   171     2.45    174     0.6  0.04   0.6   0.124   0.000   69.8    46   48.1   67.8   8.65  .0743    0.000   202    7    100.0   10 
 1/22/21 11:20a   47.4   47.4   47.1    84   42.8   6.0   NNE   1.00  10.0   NNE   44.6   47.4   44.6   49.1  29.999  0.00  0.00   182     2.61    188     0.6  0.04   0.6   0.122   0.000   69.8    46   48.1   67.8   8.65  .0743    0.000   201    7    100.0   10 
 1/22/21 11:30a   47.6   47.6   47.4    83   42.7   6.0     N   1.00   9.0   NNE   44.8   47.5   44.7   49.3  30.000  0.00  0.00   186     2.67    188     0.6  0.04   0.6   0.121   0.000   69.8    46   48.1   67.8   8.65  .0743    0.000   202    7    100.0   10 
 1/22/21 11:40a   47.4   47.6   47.4    83   42.5   6.0     N   1.00  10.0   NNW   44.6   47.3   44.5   49.0  29.999  0.00  0.00   182     2.61    188     0.6  0.04   0.6   0.122   0.000   69.8    46   48.1   67.8   8.65  .0743    0.000   203    7    100.0   10 
 1/22/21 11:50a   47.4   47.4   47.2    83   42.5   6.0    NE   1.00  10.0     N   44.6   47.3   44.5   47.9  29.994  0.00  0.00   149     2.14    178     0.5  0.04   0.6   0.122   0.000   69.7    46   48.0   67.7   8.65  .0743    0.000   201    7    100.0   10 
 1/22/21 12:00p   47.3   47.4   47.2    83   42.4   4.0    NE   0.67  11.0     N   45.8   47.2   45.7   50.0  29.992  0.00  0.00   177     2.54    192     0.7  0.05   0.7   0.123   0.000   69.7    46   48.0   67.7   8.65  .0743    0.004   202    7    100.0   10 
 1/22/21 12:10p   47.3   47.4   47.2    82   42.1   5.0   ENE   0.83  10.0   NNE   45.1   47.2   45.0   48.9  29.989  0.00  0.00   164     2.35    171     0.6  0.04   0.6   0.123   0.000   69.6    46   47.9   67.6   8.65  .0743    0.000   202    7    100.0   10 
 1/22/21 12:20p   47.4   47.5   47.2    82   42.2   6.0   NNE   1.00  11.0    NE   44.6   47.3   44.5   48.4  29.988  0.00  0.00   165     2.37    192     0.6  0.04   0.7   0.122   0.000   69.6    46   47.9   67.6   8.65  .0743    0.000   204    7    100.0   10 
 1/22/21 12:30p   47.6   47.6   47.4    82   42.4   6.0    NE   1.00  12.0   NNE   44.8   47.5   44.7   48.8  29.985  0.00  0.00   172     2.47    199     0.6  0.04   0.7   0.121   0.000   69.6    47   48.5   67.7   8.76  .0743    0.000   203    7    100.0   10 
 1/22/21 12:40p   47.8   47.8   47.5    82   42.6   5.0   NNE   0.83  11.0    NE   45.7   47.7   45.6   52.0  29.985  0.00  0.00   243     3.48    299     0.8  0.06   0.8   0.119   0.000   69.7    48   49.1   67.9   8.86  .0742    0.000   201    7    100.0   10 
 1/22/21 12:50p   48.6   48.6   47.8    83   43.7   7.0   NNE   1.17  11.0    NE   45.5   48.6   45.5   53.2  29.983  0.00  0.00   327     4.69    420     0.9  0.06   0.9   0.114   0.000   69.8    48   49.2   68.0   8.85  .0742    0.000   203    7    100.0   10 
 1/22/21  1:00p   48.8   48.8   48.5    83   43.9   8.0   NNE   1.33  15.0    NE   45.1   48.8   45.1   55.2  29.983  0.00  0.00   408     5.85    554     0.9  0.06   0.9   0.113   0.000   69.8    48   49.2   68.0   8.85  .0742    0.005   203    7    100.0   10 
 1/22/21  1:10p   49.0   49.2   48.9    83   44.1   9.0   NNE   1.50  15.0    NE   44.7   49.0   44.7   55.5  29.983  0.00  0.00   433     6.21    550     0.9  0.06   1.0   0.111   0.000   69.8    48   49.2   68.0   8.85  .0742    0.000   202    7    100.0   10 
 1/22/21  1:20p   49.1   49.2   49.0    83   44.2   7.0    NE   1.17  14.0   NNE   46.1   49.1   46.1   53.2  29.980  0.00  0.00   277     3.97    504     0.5  0.04   0.9   0.110   0.000   69.8    47   48.7   67.9   8.75  .0742    0.000   201    7    100.0   10 
 1/22/21  1:30p   48.4   49.1   48.4    83   43.5   9.0   NNE   1.50  14.0    NE   44.0   48.4   44.0   47.1  29.977  0.00  0.00   142     2.04    199     0.4  0.03   0.6   0.115   0.000   69.8    47   48.7   67.9   8.75  .0742    0.000   202    7    100.0   10 
 1/22/21  1:40p   48.2   48.4   48.1    84   43.6   8.0    NE   1.33  14.0     N   44.3   48.2   44.3   45.2  29.974  0.00  0.00    78     1.12    118     0.2  0.01   0.5   0.117   0.000   69.7    47   48.6   67.8   8.76  .0742    0.000   204    7    100.0   10 
 1/22/21  1:50p   48.3   48.3   47.9    85   44.0   8.0   NNE   1.33  15.0    NE   44.5   48.3   44.5   47.6  29.973  0.00  0.00   136     1.95    267     0.6  0.04   0.8   0.116   0.000   69.7    47   48.6   67.8   8.76  .0742    0.000   203    7    100.0   10 
 1/22/21  2:00p   48.8   48.8   48.2    84   44.2  10.0   NNE   1.67  15.0   NNE   43.9   48.8   43.9   55.5  29.976  0.00  0.00   432     6.19    554     0.8  0.06   0.8   0.113   0.000   69.7    47   48.6   67.8   8.76  .0742    0.005   203    7    100.0   10 
 1/22/21  2:10p   49.1   49.4   48.8    82   43.8  12.0   NNE   2.00  19.0   NNE   43.3   49.1   43.3   51.9  29.975  0.00  0.00   357     5.12    555     0.4  0.03   0.8   0.110   0.000   69.7    47   48.6   67.8   8.76  .0742    0.000   201    7    100.0   10 
 1/22/21  2:20p   48.6   49.0   48.5    82   43.4  12.0    NE   2.00  19.0     N   42.7   48.6   42.7   46.4  29.979  0.00  0.00   171     2.45    179     0.2  0.01   0.5   0.114   0.000   69.7    47   48.6   67.8   8.76  .0743    0.000   203    7    100.0   10 
 1/22/21  2:30p   49.0   49.0   48.5    83   44.1  12.0   NNE   2.00  19.0   NNE   43.2   49.0   43.2   51.8  29.979  0.00  0.00   339     4.86    441     0.6  0.04   0.7   0.111   0.000   69.7    47   48.6   67.8   8.76  .0743    0.000   202    7    100.0   10 
 1/22/21  2:40p   49.3   49.4   49.0    82   44.0  12.0   NNE   2.00  18.0     N   43.5   49.3   43.5   52.9  29.980  0.00  0.00   355     5.09    424     0.6  0.04   0.6   0.109   0.000   69.7    47   48.6   67.8   8.76  .0743    0.000   198    7    100.0   10 
 1/22/21  2:50p   48.6   49.3   48.5    83   43.7   9.0   NNE   1.50  15.0   NNE   44.2   48.6   44.2   47.2  29.981  0.00  0.00   135     1.94    329     0.2  0.01   0.5   0.114   0.000   69.7    47   48.6   67.8   8.76  .0743    0.000   204    7    100.0   10 
 1/22/21  3:00p   48.4   48.7   48.4    82   43.2  10.0   NNE   1.67  16.0   NNE   43.4   48.4   43.4   49.6  29.982  0.00  0.00   238     3.41    360     0.1  0.01   0.5   0.115   0.000   69.7    47   48.6   67.8   8.76  .0743    0.006   205    7    100.0   10 
 1/22/21  3:10p   48.2   48.5   48.2    83   43.3   8.0   NNE   1.33  14.0   NNW   44.3   48.2   44.3   47.4  29.982  0.00  0.00   147     2.11    250     0.0  0.00   0.0   0.117   0.000   69.7    47   48.6   67.8   8.76  .0743    0.000   202    7    100.0   10 
 1/22/21  3:20p   48.5   48.5   48.1    83   43.6   6.0   NNE   1.00  12.0   NNE   45.9   48.5   45.9   48.1  29.979  0.00  0.00   262     3.76    288     0.0  0.00   0.0   0.115   0.000   69.6    47   48.5   67.7   8.76  .0743    0.000   203    7    100.0   10 
 1/22/21  3:30p   48.6   48.7   48.5    83   43.7   6.0    NE   1.00  13.0   NNE   46.0   48.6   46.0   47.4  29.978  0.00  0.00   224     3.21    271     0.0  0.00   0.0   0.114   0.000   69.6    47   48.5   67.7   8.76  .0743    0.000   205    7    100.0   10 
 1/22/21  3:40p   48.7   48.9   48.6    83   43.8   7.0   NNE   1.17  13.0    NE   45.6   48.7   45.6   47.0  29.980  0.00  0.00   223     3.20    234     0.0  0.00   0.0   0.113   0.000   69.6    47   48.5   67.7   8.76  .0743    0.000   203    7    100.0   10 
 1/22/21  3:50p   48.6   48.8   48.6    83   43.7   8.0   NNE   1.33  14.0    NE   44.8   48.6   44.8   45.0  29.983  0.00  0.00   166     2.38    211     0.0  0.00   0.0   0.114   0.000   69.6    47   48.5   67.7   8.76  .0743    0.000   204    7    100.0   10 
 1/22/21  4:00p   48.7   48.9   48.6    83   43.8   8.0    NE   1.33  14.0     N   44.9   48.7   44.9   42.9  29.982  0.00  0.00    58     0.83     83     0.0  0.00   0.0   0.113   0.000   69.6    47   48.5   67.7   8.76  .0743    0.004   202    7    100.0   10 
 1/22/21  4:10p   48.8   48.9   48.7    83   43.9   7.0   NNE   1.17  13.0   NNE   45.8   48.8   45.8   43.6  29.981  0.00  0.00    56     0.80     81     0.0  0.00   0.0   0.113   0.000   69.6    47   48.5   67.7   8.76  .0743    0.000   203    7    100.0   10 
 1/22/21  4:20p   48.5   48.8   48.5    83   43.6   7.0   NNE   1.17  13.0   NNE   45.4   48.5   45.4   43.0  29.985  0.00  0.00    48     0.69     74     0.0  0.00   0.0   0.115   0.000   69.6    47   48.5   67.7   8.76  .0743    0.000   204    7    100.0   10 
 1/22/21  4:30p   48.4   48.6   48.4    83   43.5   8.0    NE   1.33  12.0    NE   44.6   48.4   44.6   42.9  29.988  0.00  0.00    73     1.05     88     0.0  0.00   0.0   0.115   0.000   69.6    47   48.5   67.7   8.76  .0743    0.000   203    7    100.0   10 
 1/22/21  4:40p   48.4   48.4   48.3    83   43.5   9.0   NNE   1.50  15.0   NNE   44.0   48.4   44.0   41.8  29.992  0.00  0.00    47     0.67     72     0.0  0.00   0.0   0.115   0.000   69.6    47   48.5   67.7   8.76  .0743    0.000   203    7    100.0   10 
 1/22/21  4:50p   48.1   48.4   48.1    84   43.5   9.0   NNE   1.50  15.0    NE   43.6   48.1   43.6   41.1  29.992  0.00  0.00    32     0.46     42     0.0  0.00   0.0   0.117   0.000   69.5    47   48.4   67.6   8.76  .0743    0.000   205    7    100.0   10 
 1/22/21  5:00p   47.8   48.1   47.8    84   43.2   7.0   ENE   1.17  13.0   NNE   44.6   47.8   44.6   41.6  29.991  0.00  0.00    19     0.27     26     0.0  0.00   0.0   0.119   0.000   69.5    47   48.4   67.6   8.76  .0743    0.002   203    7    100.0   10 
 1/22/21  5:10p   47.4   47.8   47.3    84   42.8   3.0   ENE   0.50   8.0   ENE   46.7   47.4   46.7   43.4  29.994  0.00  0.00     8     0.11     12     0.0  0.00   0.0   0.122   0.000   69.5    47   48.4   67.6   8.76  .0743    0.000   203    7    100.0   10 
 1/22/21  5:20p   46.7   47.3   46.7    84   42.1   3.0    NE   0.50   7.0     E   46.0   46.7   46.0   42.6  29.998  0.00  0.00     2     0.03      5     0.0  0.00   0.0   0.127   0.000   69.4    47   48.3   67.6   8.76  .0744    0.000   204    7    100.0   10 
 1/22/21  5:30p   46.3   46.7   46.3    84   41.7   3.0   ENE   0.50   7.0   ENE   45.5   46.3   45.5   42.0  30.001  0.00  0.00     0     0.00      0     0.0  0.00   0.0   0.130   0.000   69.4    47   48.3   67.6   8.76  .0744    0.000   202    7    100.0   10 
 1/22/21  5:40p   46.0   46.3   46.0    85   41.7   3.0   ENE   0.50   9.0    NE   45.2   46.0   45.2   41.7  30.003  0.00  0.00     0     0.00      0     0.0  0.00   0.0   0.132   0.000   69.4    47   48.3   67.6   8.76  .0744    0.000   203    7    100.0   10 
 1/22/21  5:50p   45.8   46.0   45.8    85   41.5   2.0   ESE   0.33   6.0     E   45.8   45.8   45.8   42.3  30.006  0.00  0.00     0     0.00      0     0.0  0.00   0.0   0.133   0.000   69.3    47   48.2   67.5   8.76  .0744    0.000   203    7    100.0   10 
 1/22/21  6:00p   45.7   45.8   45.6    85   41.4   3.0   ENE   0.50  10.0   ENE   44.8   45.7   44.8   41.3  30.008  0.00  0.00     0     0.00      0     0.0  0.00   0.0   0.134   0.000   69.3    47   48.2   67.5   8.76  .0744    0.000   201    7    100.0   10 
 1/22/21  6:10p   45.6   45.7   45.6    85   41.4   3.0   ENE   0.50   7.0   ENE   44.7   45.6   44.7   41.2  30.012  0.00  0.00     0     0.00      0     0.0  0.00   0.0   0.135   0.000   69.3    47   48.2   67.5   8.76  .0744    0.000   204    7    100.0   10 
 1/22/21  6:20p   45.5   45.6   45.5    86   41.6   3.0   ENE   0.50   7.0   ENE   44.6   45.5   44.6   41.1  30.017  0.00  0.00     0     0.00      0     0.0  0.00   0.0   0.135   0.000   69.3    47   48.2   67.5   8.76  .0744    0.000   201    7    100.0   10 
 1/22/21  6:30p   45.3   45.5   45.3    86   41.4   2.0     E   0.33   5.0     E   45.3   45.3   45.3   41.8  30.018  0.00  0.00     0     0.00      0     0.0  0.00   0.0   0.137   0.000   69.2    47   48.1   67.4   8.77  .0744    0.000   203    7    100.0   10 
 1/22/21  6:40p   45.1   45.3   45.1    86   41.2   3.0     E   0.50   7.0     E   44.1   45.0   44.0   40.5  30.019  0.00  0.00     0     0.00      0     0.0  0.00   0.0   0.138   0.000   69.2    47   48.1   67.4   8.77  .0744    0.000   202    7    100.0   10 
 1/22/21  6:50p   44.7   45.1   44.7    86   40.8   2.0     E   0.33   7.0     E   44.7   44.6   44.6   41.1  30.022  0.00  0.00     0     0.00      0     0.0  0.00   0.0   0.141   0.000   69.2    47   48.1   67.4   8.77  .0744    0.000   202    7    100.0   10 
 1/22/21  7:00p   44.6   44.8   44.5    86   40.7   3.0     E   0.50   7.0     E   43.6   44.5   43.5   40.0  30.022  0.00  0.00     0     0.00      0     0.0  0.00   0.0   0.142   0.000   69.2    47   48.1   67.4   8.77  .0744    0.001   203    7    100.0   10 
 1/22/21  7:10p   44.8   44.8   44.5    86   40.9   3.0     E   0.50   8.0     E   43.8   44.7   43.7   40.2  30.023  0.00  0.00     0     0.00      0     0.0  0.00   0.0   0.140   0.000   69.2    48   48.7   67.5   8.87  .0744    0.000   203    7    100.0   10 
 1/22/21  7:20p   44.5   44.8   44.4    86   40.6   2.0     E   0.33   5.0   ESE   44.5   44.4   44.4   40.9  30.026  0.00  0.00     0     0.00      0     0.0  0.00   0.0   0.142   0.000   69.1    48   48.6   67.5   8.87  .0745    0.000   204    7    100.0   10 
 1/22/21  7:30p   43.9   44.5   43.9    86   40.0   1.0     E   0.17   3.0     E   43.9   43.8   43.8   40.2  30.030  0.00  0.00     0     0.00      0     0.0  0.00   0.0   0.147   0.000   69.1    48   48.6   67.5   8.87  .0745    0.000   204    7    100.0   10 
 1/22/21  7:40p   43.5   43.9   43.5    86   39.6   0.0     E   0.00   2.0     E   43.5   43.4   43.4   39.8  30.030  0.00  0.00     0     0.00      0     0.0  0.00   0.0   0.149   0.000   69.1    48   48.6   67.5   8.87  .0745    0.000   203    7    100.0   10 
 1/22/21  7:50p   43.3   43.5   43.3    86   39.4   0.0   ---   0.00   0.0   ---   43.3   43.2   43.2   39.6  30.033  0.00  0.00     0     0.00      0     0.0  0.00   0.0   0.151   0.000   69.0    48   48.5   67.4   8.87  .0745    0.000   199    7    100.0   10 
 1/22/21  8:00p   42.7   43.3   42.7    86   38.8   0.0   ---   0.00   0.0   ---   42.7   42.6   42.6   39.0  30.032  0.00  0.00     0     0.00      0     0.0  0.00   0.0   0.155   0.000   69.0    48   48.5   67.4   8.87  .0745    0.000   202    7    100.0   10 
 1/22/21  8:10p   42.4   42.7   42.3    87   38.8   0.0   ESE   0.00   1.0   ESE   42.4   42.3   42.3   38.7  30.035  0.00  0.00     0     0.00      0     0.0  0.00   0.0   0.157   0.000   69.0    48   48.5   67.4   8.87  .0745    0.000   203    7    100.0   10 
 1/22/21  8:20p   42.6   42.6   42.3    88   39.3   1.0   SSE   0.17   5.0   SSE   42.6   42.5   42.5   38.9  30.035  0.00  0.00     0     0.00      0     0.0  0.00   0.0   0.156   0.000   69.0    48   48.5   67.4   8.87  .0745    0.000   203    7    100.0   10 
 1/22/21  8:30p   42.9   42.9   42.6    88   39.6   1.0    SE   0.17   6.0     S   42.9   42.9   42.9   39.3  30.038  0.00  0.00     0     0.00      0     0.0  0.00   0.0   0.153   0.000   69.0    48   48.5   67.4   8.87  .0745    0.000   204    7    100.0   10 
 1/22/21  8:40p   43.1   43.3   42.9    88   39.8   3.0   ESE   0.50   8.0   SSE   41.9   43.1   41.9   38.3  30.041  0.00  0.00     0     0.00      0     0.0  0.00   0.0   0.152   0.000   69.0    48   48.5   67.4   8.87  .0745    0.000   203    7    100.0   10 
 1/22/21  8:50p   43.1   43.2   43.1    88   39.8   1.0   ESE   0.17   4.0   ESE   43.1   43.1   43.1   39.5  30.046  0.00  0.00     0     0.00      0     0.0  0.00   0.0   0.152   0.000   69.0    48   48.5   67.4   8.87  .0745    0.000   200    7    100.0   10 
 1/22/21  9:00p   42.9   43.2   42.8    88   39.6   1.0   ENE   0.17   3.0   ENE   42.9   42.9   42.9   39.3  30.049  0.00  0.00     0     0.00      0     0.0  0.00   0.0   0.153   0.000   68.9    48   48.4   67.3   8.87  .0745    0.000   202    7    100.0   10 
 1/22/21  9:10p   42.7   42.9   42.7    88   39.4   1.0   NNE   0.17   3.0   NNE   42.7   42.6   42.6   39.0  30.052  0.00  0.00     0     0.00      0     0.0  0.00   0.0   0.155   0.000   68.9    48   48.4   67.3   8.87  .0746    0.000   201    7    100.0   10 
 1/22/21  9:20p   42.6   42.7   42.6    88   39.3   1.0     N   0.17   3.0   NNE   42.6   42.5   42.5   38.9  30.059  0.00  0.00     0     0.00      0     0.0  0.00   0.0   0.156   0.000   68.8    48   48.3   67.2   8.87  .0746    0.000   204    7    100.0   10 
 1/22/21  9:30p   42.0   42.6   42.0    88   38.7   0.0     N   0.00   1.0     N   42.0   41.9   41.9   38.3  30.061  0.00  0.00     0     0.00      0     0.0  0.00   0.0   0.160   0.000   68.7    48   48.2   67.1   8.88  .0746    0.000   201    7    100.0   10 
 1/22/21  9:40p   41.3   42.0   41.3    88   38.0   1.0     N   0.17   2.0     N   41.3   41.2   41.2   37.6  30.061  0.00  0.00     0     0.00      0     0.0  0.00   0.0   0.165   0.000   68.7    48   48.2   67.1   8.88  .0746    0.000   201    7    100.0   10 
 1/22/21  9:50p   40.6   41.3   40.6    88   37.3   0.0    NE   0.00   1.0    NE   40.6   40.5   40.5   36.9  30.064  0.00  0.00     0     0.00      0     0.0  0.00   0.0   0.169   0.000   68.6    48   48.1   67.0   8.88  .0746    0.000   202    7    100.0   10 
 1/22/21 10:00p   40.3   40.6   40.3    89   37.3   0.0    NE   0.00   2.0    NE   40.3   40.2   40.2   36.6  30.066  0.00  0.00     0     0.00      0     0.0  0.00   0.0   0.172   0.000   68.5    48   48.0   66.9   8.88  .0747    0.000   203    7    100.0   10 
 1/22/21 10:10p   39.8   40.3   39.8    89   36.8   0.0    NE   0.00   3.0    NE   39.8   39.7   39.7   36.0  30.068  0.00  0.00     0     0.00      0     0.0  0.00   0.0   0.175   0.000   68.4    48   47.9   66.9   8.88  .0747    0.000   203    7    100.0   10 
 1/22/21 10:20p   39.6   39.8   39.5    89   36.6   0.0   ---   0.00   0.0   ---   39.6   39.5   39.5   35.8  30.066  0.00  0.00     0     0.00      0     0.0  0.00   0.0   0.176   0.000   68.4    48   47.9   66.9   8.88  .0747    0.000   201    7    100.0   10 
 1/22/21 10:30p   39.7   39.7   39.6    89   36.7   0.0   ---   0.00   0.0   ---   39.7   39.6   39.6   35.9  30.068  0.00  0.00     0     0.00      0     0.0  0.00   0.0   0.176   0.000   68.3    48   47.8   66.8   8.88  .0747    0.000   203    7    100.0   10 
 1/22/21 10:40p   40.4   40.4   39.7    90   37.7   2.0   ESE   0.33   7.0   ESE   40.2   40.3   40.1   36.5  30.068  0.00  0.00     0     0.00      0     0.0  0.00   0.0   0.171   0.000   68.2    48   47.8   66.7   8.89  .0747    0.000   200    7    100.0   10 
 1/22/21 10:50p   40.8   40.8   40.4    90   38.1   3.0   ESE   0.50   7.0    SE   39.3   40.7   39.2   35.6  30.070  0.00  0.00     0     0.00      0     0.0  0.00   0.0   0.168   0.000   68.2    48   47.8   66.7   8.89  .0747    0.000   202    7    100.0   10 
 1/22/21 11:00p   41.1   41.2   40.8    90   38.4   1.0    NE   0.17   4.0   ESE   41.1   41.0   41.0   37.4  30.076  0.00  0.00     0     0.00      0     0.0  0.00   0.0   0.166   0.000   68.1    48   47.7   66.6   8.89  .0747    0.000   203    7    100.0   10 
 1/22/21 11:10p   40.8   41.2   40.7    89   37.8   0.0    NE   0.00   2.0    NE   40.8   40.7   40.7   37.1  30.083  0.00  0.00     0     0.00      0     0.0  0.00   0.0   0.168   0.000   68.0    48   47.6   66.5   8.89  .0748    0.000   201    7    100.0   10 
 1/22/21 11:20p   40.7   40.8   40.5    90   38.0   0.0    NE   0.00   3.0    NE   40.7   40.6   40.6   37.0  30.082  0.00  0.00     0     0.00      0     0.0  0.00   0.0   0.169   0.000   67.9    47   46.9   66.3   8.79  .0748    0.000   203    7    100.0   10 
 1/22/21 11:30p   40.4   40.8   40.4    89   37.4   0.0   ---   0.00   0.0   ---   40.4   40.3   40.3   36.7  30.083  0.00  0.00     0     0.00      0     0.0  0.00   0.0   0.171   0.000   67.9    47   46.9   66.3   8.79  .0748    0.000   203    7    100.0   10 
 1/22/21 11:40p   39.7   40.4   39.7    89   36.7   0.0    NE   0.00   2.0    NE   39.7   39.6   39.6   35.9  30.085  0.00  0.00     0     0.00      0     0.0  0.00   0.0   0.176   0.000   67.8    47   46.8   66.2   8.79  .0748    0.000   202    7    100.0   10 
 1/22/21 11:50p   39.4   39.7   39.4    90   36.7   0.0    NE   0.00   2.0    NE   39.4   39.3   39.3   35.6  30.085  0.00  0.00     0     0.00      0     0.0  0.00   0.0   0.178   0.000   67.7    47   46.7   66.1   8.80  .0749    0.000   203    7    100.0   10 
 1/23/21 12:00a   39.2   39.4   39.2    90   36.5   0.0    NE   0.00   2.0    NE   39.2   39.1   39.1   35.4  30.086  0.00  0.00     0     0.00      0     0.0  0.00   0.0   0.179   0.000   67.6    47   46.6   66.0   8.80  .0749    0.000   200    7    100.0   10 
 1/23/21 12:10a   39.2   39.3   39.2    90   36.5   0.0    NE   0.00   2.0    NE   39.2   39.1   39.1   35.4  30.086  0.00  0.00     0     0.00      0     0.0  0.00   0.0   0.179   0.000   67.5    47   46.6   65.8   8.80  .0749    0.000   202    7    100.0   10 
 1/23/21 12:20a   39.3   39.3   39.1    90   36.6   0.0    NE   0.00   2.0    NE   39.3   39.2   39.2   35.5  30.088  0.00  0.00     0     0.00      0     0.0  0.00   0.0   0.178   0.000   67.5    47   46.6   65.8   8.80  .0749    0.000   201    7    100.0   10 
 1/23/21 12:30a   39.1   39.3   39.1    90   36.4   0.0    NE   0.00   1.0    NE   39.1   39.0   39.0   35.3  30.090  0.00  0.00     0     0.00      0     0.0  0.00   0.0   0.180   0.000   67.4    47   46.5   65.7   8.80  .0749    0.000   203    7    100.0   10 
 1/23/21 12:40a   39.1   39.2   39.0    91   36.7   0.0    NE   0.00   1.0    NE   39.1   39.0   39.0   35.3  30.094  0.00  0.00     0     0.00      0     0.0  0.00   0.0   0.180   0.000   67.3    47   46.4   65.6   8.80  .0749    0.000   203    7    100.0   10 
 1/23/21 12:50a   39.0   39.3   39.0    90   36.3   0.0    NE   0.00   2.0    NE   39.0   38.9   38.9   35.2  30.095  0.00  0.00     0     0.00      0     0.0  0.00   0.0   0.181   0.000   67.3    47   46.4   65.6   8.80  .0750    0.000   204    7    100.0   10 
 1/23/21  1:00a   38.4   39.0   38.4    90   35.7   1.0    NE   0.17   2.0    NE   38.4   38.3   38.3   34.6  30.098  0.00  0.00     0     0.00      0     0.0  0.00   0.0   0.185   0.000   67.2    47   46.3   65.5   8.81  .0750    0.000   201    7    100.0   10 
 1/23/21  1:10a   37.6   38.3   37.6    90   34.9   1.0    NE   0.17   3.0    NE   37.6   37.5   37.5   33.7  30.101  0.00  0.00     0     0.00      0     0.0  0.00   0.0   0.190   0.000   67.1    47   46.2   65.4   8.81  .0750    0.000   202    7    100.0   10 
 1/23/21  1:20a   37.0   37.6   37.0    90   34.3   2.0    NE   0.33   3.0    NE   36.5   36.9   36.4   32.6  30.101  0.00  0.00     0     0.00      0     0.0  0.00   0.0   0.194   0.000   67.0    47   46.1   65.3   8.81  .0750    0.000   200    7    100.0   10 
 1/23/21  1:30a   36.6   37.0   36.6    90   33.9   1.0    NE   0.17   3.0    NE   36.6   36.5   36.5   32.7  30.106  0.00  0.00     0     0.00      0     0.0  0.00   0.0   0.197   0.000   66.9    47   46.0   65.2   8.81  .0750    0.000   204    7    100.0   10 
 1/23/21  1:40a   36.3   36.6   36.3    90   33.6   1.0    NE   0.17   3.0    NE   36.3   36.2   36.2   32.4  30.107  0.00  0.00     0     0.00      0     0.0  0.00   0.0   0.199   0.000   66.9    47   46.0   65.2   8.81  .0750    0.000   201    7    100.0   10 
 1/23/21  1:50a   36.2   36.4   36.2    91   33.8   1.0    NE   0.17   3.0    NE   36.2   36.1   36.1   32.3  30.105  0.00  0.00     0     0.00      0     0.0  0.00   0.0   0.200   0.000   66.8    47   45.9   65.1   8.81  .0751    0.000   202    7    100.0   10 
 1/23/21  2:00a   36.7   36.7   36.2    92   34.6   0.0    NE   0.00   2.0    NE   36.7   36.6   36.6   32.8  30.105  0.00  0.00     0     0.00      0     0.0  0.00   0.0   0.197   0.000   66.7    47   45.8   64.9   8.82  .0751    0.000   203    7    100.0   10 
 1/23/21  2:10a   37.3   37.3   36.7    92   35.2   0.0   ---   0.00   0.0   ---   37.3   37.2   37.2   33.5  30.111  0.00  0.00     0     0.00      0     0.0  0.00   0.0   0.192   0.000   66.6    47   45.7   64.8   8.82  .0751    0.000   204    7    100.0   10 
 1/23/21  2:20a   37.9   37.9   37.3    92   35.8   0.0   ---   0.00   0.0   ---   37.9   37.8   37.8   34.1  30.114  0.00  0.00     0     0.00      0     0.0  0.00   0.0   0.188   0.000   66.6    47   45.7   64.8   8.82  .0751    0.000   197    7     99.5   10 
 1/23/21  2:30a   37.8   38.0   37.8    91   35.4   0.0   ---   0.00   0.0   ---   37.8   37.7   37.7   34.0  30.112  0.00  0.00     0     0.00      0     0.0  0.00   0.0   0.189   0.000   66.5    47   45.6   64.7   8.82  .0751    0.000   197    7     99.5   10 
 1/23/21  2:40a   37.6   37.8   37.6    92   35.5   0.0   ---   0.00   0.0   ---   37.6   37.5   37.5   33.8  30.109  0.00  0.00     0     0.00      0     0.0  0.00   0.0   0.190   0.000   66.4    47   45.5   64.6   8.82  .0751    0.000   203    7    100.0   10 
 1/23/21  2:50a   37.8   37.8   37.6    92   35.7   0.0   ---   0.00   0.0   ---   37.8   37.7   37.7   34.0  30.110  0.00  0.00     0     0.00      0     0.0  0.00   0.0   0.189   0.000   66.4    47   45.5   64.6   8.82  .0751    0.000   201    7    100.0   10 
 1/23/21  3:00a   38.0   38.0   37.7    92   35.9   0.0   ---   0.00   0.0   ---   38.0   37.9   37.9   34.2  30.111  0.00  0.00     0     0.00      0     0.0  0.00   0.0   0.188   0.000   66.3    47   45.5   64.5   8.82  .0752    0.000   200    7    100.0   10 
 1/23/21  3:10a   38.4   38.4   38.0    92   36.3   1.0    SE   0.17   6.0   SSE   38.4   38.3   38.3   34.6  30.117  0.00  0.00     0     0.00      0     0.0  0.00   0.0   0.185   0.000   66.2    47   45.4   64.3   8.83  .0752    0.000   201    7    100.0   10 
 1/23/21  3:20a   38.5   38.6   38.3    92   36.4   1.0   SSE   0.17   3.0    SE   38.5   38.4   38.4   34.7  30.127  0.00  0.00     0     0.00      0     0.0  0.00   0.0   0.184   0.000   66.2    47   45.4   64.3   8.83  .0752    0.000   203    7    100.0   10 
 1/23/21  3:30a   38.2   38.6   38.2    91   35.8   0.0   SSE   0.00   2.0   SSE   38.2   38.1   38.1   34.4  30.129  0.00  0.00     0     0.00      0     0.0  0.00   0.0   0.186   0.000   66.1    47   45.3   64.2   8.83  .0752    0.000   200    7    100.0   10 
 1/23/21  3:40a   37.5   38.2   37.5    91   35.1   0.0   ---   0.00   0.0   ---   37.5   37.4   37.4   33.7  30.132  0.00  0.00     0     0.00      0     0.0  0.00   0.0   0.191   0.000   66.0    47   45.2   64.1   8.83  .0753    0.000   203    7    100.0   10 
 1/23/21  3:50a   36.8   37.5   36.8    91   34.4   0.0   ---   0.00   0.0   ---   36.8   36.7   36.7   32.9  30.134  0.00  0.00     0     0.00      0     0.0  0.00   0.0   0.196   0.000   66.0    47   45.2   64.1   8.83  .0753    0.000   202    7    100.0   10 
 1/23/21  4:00a   36.2   36.8   36.2    91   33.8   0.0   ---   0.00   0.0   ---   36.2   36.1   36.1   32.3  30.137  0.00  0.00     0     0.00      0     0.0  0.00   0.0   0.200   0.000   65.9    47   45.1   64.0   8.83  .0753    0.000   198    7    100.0   10 
 1/23/21  4:10a   35.8   36.2   35.8    91   33.4   0.0   ---   0.00   0.0   ---   35.8   35.7   35.7   31.9  30.137  0.00  0.00     0     0.00      0     0.0  0.00   0.0   0.203   0.000   65.8    47   45.0   63.9   8.83  .0753    0.000   203    7    100.0   10 
 1/23/21  4:20a   35.6   35.9   35.6    91   33.2   0.0   ---   0.00   0.0   ---   35.6   35.5   35.5   31.7  30.137  0.00  0.00     0     0.00      0     0.0  0.00   0.0   0.204   0.000   65.8    47   45.0   63.9   8.83  .0753    0.000   204    7    100.0   10 
 1/23/21  4:30a   35.6   35.6   35.5    92   33.5   0.0   ---   0.00   0.0   ---   35.6   35.5   35.5   31.7  30.138  0.00  0.00     0     0.00      0     0.0  0.00   0.0   0.204   0.000   65.7    47   44.9   63.8   8.84  .0753    0.000   201    7    100.0   10 
 1/23/21  4:40a   35.9   35.9   35.6    92   33.8   0.0   ---   0.00   0.0   ---   35.9   35.8   35.8   32.0  30.137  0.00  0.00     0     0.00      0     0.0  0.00   0.0   0.202   0.000   65.6    47   44.8   63.7   8.84  .0753    0.000   201    7    100.0   10 
 1/23/21  4:50a   36.1   36.1   35.9    92   34.0   2.0   ESE   0.33   3.0   ESE   35.5   36.0   35.4   31.6  30.135  0.00  0.00     0     0.00      0     0.0  0.00   0.0   0.201   0.000   65.6    47   44.8   63.7   8.84  .0753    0.000   204    7    100.0   10 
 1/23/21  5:00a   36.3   36.3   36.1    92   34.2   2.0   ESE   0.33   6.0   ESE   35.7   36.2   35.6   31.8  30.133  0.00  0.00     0     0.00      0     0.0  0.00   0.0   0.199   0.000   65.5    47   44.7   63.5   8.84  .0754    0.000   204    7    100.0   10 
 1/23/21  5:10a   36.3   36.3   36.2    92   34.2   2.0   ESE   0.33   4.0   ESE   35.7   36.2   35.6   31.8  30.138  0.00  0.00     0     0.00      0     0.0  0.00   0.0   0.199   0.000   65.4    47   44.6   63.4   8.84  .0754    0.000   201    7    100.0   10 
 1/23/21  5:20a   36.3   36.4   36.3    92   34.2   2.0   ESE   0.33   4.0   ESE   35.7   36.2   35.6   31.8  30.140  0.00  0.00     0     0.00      0     0.0  0.00   0.0   0.199   0.000   65.3    47   44.5   63.3   8.84  .0754    0.000   204    7    100.0   10 
 1/23/21  5:30a   36.2   36.3   36.2    92   34.1   2.0   ESE   0.33   6.0     E   35.6   36.1   35.5   31.7  30.135  0.00  0.00     0     0.00      0     0.0  0.00   0.0   0.200   0.000   65.3    47   44.5   63.3   8.84  .0754    0.000   201    7    100.0   10 
 1/23/21  5:40a   36.2   36.2   36.2    92   34.1   2.0   ESE   0.33   4.0   ESE   35.6   36.1   35.5   31.7  30.136  0.00  0.00     0     0.00      0     0.0  0.00   0.0   0.200   0.000   65.4    47   44.6   63.4   8.84  .0754    0.000   205    7    100.0   10 
 1/23/21  5:50a   36.4   36.4   36.2    93   34.6   3.0   ESE   0.50   7.0   ESE   34.3   36.4   34.3   30.5  30.138  0.00  0.00     0     0.00      0     0.0  0.00   0.0   0.199   0.000   65.7    47   44.9   63.8   8.84  .0753    0.000   202    7    100.0   10 
 1/23/21  6:00a   36.7   36.7   36.4    93   34.9   3.0   ESE   0.50   6.0   ESE   34.6   36.7   34.6   30.8  30.141  0.00  0.00     0     0.00      0     0.0  0.00   0.0   0.197   0.000   65.9    47   45.1   64.0   8.83  .0753    0.000   203    7    100.0   10 
 1/23/21  6:10a   36.6   36.7   36.6    92   34.5   2.0   ESE   0.33   4.0     E   36.0   36.5   35.9   32.1  30.142  0.00  0.00     0     0.00      0     0.0  0.00   0.0   0.197   0.000   66.2    47   45.4   64.3   8.83  .0753    0.000   200    7    100.0   10 
 1/23/21  6:20a   36.5   36.7   36.5    92   34.4   2.0   ESE   0.33   4.0   ESE   35.9   36.4   35.8   32.0  30.145  0.00  0.00     0     0.00      0     0.0  0.00   0.0   0.198   0.000   66.5    47   45.6   64.7   8.82  .0752    0.000   204    7    100.0   10 
 1/23/21  6:30a   36.6   36.6   36.5    92   34.5   2.0   ESE   0.33   4.0   ESE   36.0   36.5   35.9   32.1  30.148  0.00  0.00     0     0.00      0     0.0  0.00   0.0   0.197   0.000   66.7    46   45.3   64.8   8.65  .0752    0.000   203    7    100.0   10 
 1/23/21  6:40a   36.4   36.6   36.4    92   34.3   2.0   ESE   0.33   4.0   ESE   35.8   36.3   35.7   31.9  30.153  0.00  0.00     0     0.00      0     0.0  0.00   0.0   0.199   0.000   67.0    46   45.5   65.2   8.65  .0752    0.000   204    7    100.0   10 
 1/23/21  6:50a   36.2   36.5   36.2    92   34.1   2.0   ESE   0.33   4.0   ESE   35.6   36.1   35.5   31.7  30.157  0.00  0.00     0     0.00      0     0.0  0.00   0.0   0.200   0.000   67.3    46   45.8   65.5   8.65  .0751    0.000   202    7    100.0   10 
 1/23/21  7:00a   36.1   36.2   36.1    92   34.0   3.0   ESE   0.50   6.0   ESE   34.0   36.0   33.9   30.1  30.159  0.00  0.00     0     0.00      0     0.0  0.00   0.0   0.201   0.000   67.6    46   46.1   65.9   8.65  .0751    0.000   204    7    100.0   10 
 1/23/21  7:10a   36.1   36.1   36.0    92   34.0   4.0   ESE   0.67   7.0     E   32.8   36.0   32.7   28.9  30.158  0.00  0.00     0     0.00      0     0.0  0.00   0.0   0.201   0.000   67.8    46   46.3   66.1   8.65  .0750    0.000   198    7    100.0   10 
 1/23/21  7:20a   36.2   36.3   36.1    92   34.1   4.0   ESE   0.67   7.0   ESE   32.9   36.1   32.8   29.0  30.158  0.00  0.00     0     0.00      0     0.0  0.00   0.0   0.200   0.000   68.0    46   46.4   66.3   8.65  .0750    0.000   201    7    100.0   10 
 1/23/21  7:30a   36.4   36.4   36.2    92   34.3   4.0   ESE   0.67   7.0   ESE   33.2   36.3   33.1   29.3  30.159  0.00  0.00     0     0.00      0     0.0  0.00   0.0   0.199   0.000   68.2    46   46.6   66.5   8.65  .0750    0.000   202    7    100.0   10 
 1/23/21  7:40a   36.5   36.5   36.4    92   34.4   3.0   ESE   0.50   6.0   ESE   34.4   36.4   34.3   30.5  30.162  0.00  0.00     0     0.00      0     0.0  0.00   0.0   0.198   0.000   68.2    46   46.6   66.5   8.65  .0750    0.000   199    7    100.0   10 
 1/23/21  7:50a   36.6   36.7   36.5    92   34.5   3.0   ESE   0.50   6.0   ESE   34.5   36.5   34.4   30.7  30.162  0.00  0.00     4     0.06      7     0.0  0.00   0.0   0.197   0.000   68.2    46   46.6   66.5   8.65  .0750    0.000   200    7    100.0   10 
 1/23/21  8:00a   36.7   36.8   36.6    92   34.6   3.0   ESE   0.50   6.0   ESE   34.6   36.6   34.5   30.9  30.162  0.00  0.00     8     0.11      9     0.0  0.00   0.0   0.197   0.000   68.1    46   46.5   66.4   8.65  .0750    0.000   202    7    100.0   10 
 1/23/21  8:10a   36.7   36.8   36.6    92   34.6   4.0   ESE   0.67   8.0    SE   33.5   36.6   33.4   29.8  30.171  0.00  0.00    10     0.14     11     0.0  0.00   0.0   0.197   0.000   68.2    46   46.6   66.5   8.65  .0750    0.000   204    7    100.0   10 
 1/23/21  8:20a   36.7   36.8   36.6    92   34.6   3.0   ESE   0.50   6.0   ESE   34.6   36.6   34.5   31.0  30.170  0.00  0.00    14     0.20     21     0.0  0.00   0.0   0.197   0.000   68.2    46   46.6   66.5   8.65  .0750    0.000   204    7    100.0   10 
 1/23/21  8:30a   37.2   37.2   36.7    92   35.1   3.0   ESE   0.50   8.0    SE   35.2   37.1   35.1   32.0  30.167  0.00  0.00    30     0.43     33     0.0  0.00   0.0   0.193   0.000   68.3    46   46.7   66.6   8.65  .0750    0.000   203    7    100.0   10 
 1/23/21  8:40a   37.7   37.7   37.2    92   35.6   3.0   ESE   0.50   7.0   ESE   35.8   37.6   35.7   32.7  30.171  0.00  0.00    36     0.52     40     0.0  0.00   0.0   0.190   0.000   68.3    46   46.7   66.6   8.65  .0750    0.000   202    7    100.0   10 
 1/23/21  8:50a   38.1   38.1   37.7    92   36.0   2.0    SE   0.33   4.0   ESE   37.7   38.0   37.6   34.9  30.185  0.00  0.00    46     0.66     49     0.0  0.00   0.0   0.187   0.000   68.3    46   46.7   66.6   8.65  .0750    0.000   203    7    100.0   10 
 1/23/21  9:00a   38.6   38.6   38.1    92   36.5   1.0    SE   0.17   3.0    SE   38.6   38.5   38.5   38.6  30.188  0.00  0.00    55     0.79     62     0.0  0.00   0.0   0.183   0.000   68.4    46   46.8   66.7   8.65  .0750    0.001   203    7    100.0   10 
 1/23/21  9:10a   39.1   39.2   38.6    92   37.0   1.0     E   0.17   4.0     E   39.1   39.0   39.0   39.5  30.189  0.00  0.00    63     0.90     67     0.0  0.00   0.0   0.180   0.000   68.5    46   46.9   66.8   8.65  .0750    0.000   201    7    100.0   10 
 1/23/21  9:20a   39.6   39.6   39.1    92   37.5   1.0     E   0.17   3.0     E   39.6   39.6   39.6   40.3  30.193  0.00  0.00    68     0.97     81     0.0  0.00   0.0   0.176   0.000   68.5    46   46.9   66.8   8.65  .0750    0.000   202    7    100.0   10 
 1/23/21  9:30a   40.0   40.0   39.5    92   37.9   1.0     E   0.17   2.0     E   40.0   40.0   40.0   40.8  30.194  0.00  0.00    71     1.02     81     0.0  0.00   0.0   0.174   0.000   68.6    46   47.0   66.8   8.65  .0750    0.000   204    7    100.0   10 
 1/23/21  9:40a   40.5   40.5   40.0    92   38.4   1.0     E   0.17   3.0     E   40.5   40.5   40.5   42.3  30.191  0.00  0.00    95     1.36     98     0.0  0.00   0.0   0.170   0.000   68.7    46   47.1   66.9   8.65  .0750    0.000   202    7    100.0   10 
 1/23/21  9:50a   40.8   40.8   40.5    91   38.4   2.0     E   0.33   4.0   ESE   40.7   40.7   40.6   41.2  30.189  0.00  0.00    66     0.95     91     0.0  0.00   0.0   0.168   0.000   68.8    46   47.2   67.0   8.65  .0749    0.000   202    7    100.0   10 
 1/23/21 10:00a   40.4   40.8   40.4    90   37.7   2.0     E   0.33   4.0   ESE   40.2   40.3   40.1   38.9  30.191  0.00  0.00    27     0.39     30     0.0  0.00   0.0   0.171   0.000   68.8    46   47.2   67.0   8.65  .0750    0.001   203    7    100.0   10 
 1/23/21 10:10a   40.5   40.5   40.2    91   38.1   3.0     E   0.50   7.0     E   39.0   40.4   38.9   37.7  30.198  0.00  0.00    29     0.42     35     0.0  0.00   0.0   0.170   0.000   68.9    46   47.3   67.1   8.65  .0750    0.000   203    7    100.0   10 
 1/23/21 10:20a   41.1   41.1   40.4    91   38.7   1.0   ENE   0.17   3.0   ENE   41.1   41.0   41.0   39.9  30.200  0.00  0.00    30     0.43     35     0.0  0.00   0.0   0.166   0.000   69.0    46   47.4   67.2   8.65  .0749    0.000   201    7    100.0   10 
 1/23/21 10:30a   42.2   42.2   41.1    91   39.8   3.0     E   0.50   8.0   ENE   40.8   42.2   40.8   39.6  30.198  0.00  0.00    29     0.42     32     0.0  0.00   0.0   0.158   0.000   69.1    46   47.4   67.3   8.65  .0749    0.000   200    7    100.0   10 
 1/23/21 10:40a   43.4   43.4   42.2    89   40.4   3.0    NE   0.50   8.0     N   42.2   43.4   42.2   41.0  30.200  0.00  0.00    29     0.42     30     0.0  0.00   0.0   0.150   0.000   69.1    46   47.4   67.3   8.65  .0749    0.000   204    7    100.0   10 
 1/23/21 10:50a   44.2   44.2   43.4    88   40.9   3.0    NE   0.50  10.0   ENE   43.1   44.2   43.1   42.0  30.204  0.00  0.00    32     0.46     35     0.0  0.00   0.0   0.144   0.000   69.0    46   47.4   67.2   8.65  .0750    0.000   203    7    100.0   10 
 1/23/21 11:00a   45.0   45.0   44.2    86   41.1   5.0   ENE   0.83  10.0   NNE   42.3   44.9   42.2   41.2  30.205  0.00  0.00    33     0.47     35     0.0  0.00   0.0   0.139   0.000   69.1    46   47.4   67.3   8.65  .0749    0.001   200    7    100.0   10 
 1/23/21 11:10a   45.6   45.6   45.0    84   41.0   5.0    NE   0.83  12.0    NE   43.0   45.5   42.9   42.2  30.205  0.00  0.00    40     0.57     51     0.0  0.00   0.0   0.135   0.000   69.2    45   46.9   67.2   8.47  .0749    0.000   203    7    100.0   10 
 1/23/21 11:20a   46.2   46.2   45.6    82   41.0   6.0    NE   1.00  12.0   NNE   43.1   46.1   43.0   44.5  30.198  0.00  0.00    95     1.36    125     0.6  0.04   0.7   0.131   0.000   69.3    45   47.0   67.3   8.46  .0749    0.000   202    7    100.0   10 
 1/23/21 11:30a   46.1   46.2   46.0    81   40.6   4.0   ENE   0.67  10.0     E   44.3   45.9   44.1   46.9  30.198  0.00  0.00   132     1.89    149     0.7  0.05   0.7   0.131   0.000   69.4    45   47.1   67.4   8.46  .0749    0.000   200    7    100.0   10 
 1/23/21 11:40a   46.0   46.2   46.0    80   40.2   5.0   ENE   0.83  10.0   ENE   43.5   45.8   43.3   45.3  30.194  0.00  0.00   110     1.58    132     0.7  0.05   0.8   0.132   0.000   69.5    45   47.2   67.4   8.46  .0749    0.000   203    7    100.0   10 
 1/23/21 11:50a   46.0   46.0   45.9    80   40.2   4.0   ENE   0.67   9.0   ENE   44.2   45.8   44.0   43.3  30.189  0.00  0.00    42     0.60     54     0.0  0.00   0.0   0.132   0.000   69.6    45   47.3   67.5   8.46  .0748    0.000   201    7    100.0   10 
 1/23/21 12:00p   46.2   46.2   45.9    79   40.0   3.0   ENE   0.50   8.0   ENE   45.4   46.0   45.2   44.5  30.189  0.00  0.00    43     0.62     46     0.0  0.00   0.0   0.131   0.000   69.6    45   47.3   67.5   8.46  .0748    0.002   203    7    100.0   10 
 1/23/21 12:10p   46.8   46.8   46.2    80   41.0   3.0   ENE   0.50   9.0     N   46.1   46.6   45.9   45.7  30.185  0.00  0.00    54     0.77     67     0.1  0.01   0.8   0.126   0.000   69.6    45   47.3   67.5   8.46  .0748    0.000   202    7    100.0   10 
 1/23/21 12:20p   47.1   47.1   46.8    78   40.6   3.0   ENE   0.50   9.0    NE   46.4   46.9   46.2   52.8  30.182  0.00  0.00   254     3.64    482     0.8  0.06   0.8   0.124   0.000   69.6    45   47.3   67.5   8.46  .0748    0.000   200    7    100.0   10 
 1/23/21 12:30p   47.8   47.8   47.1    78   41.3   4.0    NE   0.67   8.0     N   46.4   47.6   46.2   54.0  30.175  0.00  0.00   334     4.79    392     0.8  0.06   0.9   0.119   0.000   69.6    45   47.3   67.5   8.46  .0748    0.000   203    7    100.0   10 
 1/23/21 12:40p   48.1   48.1   47.7    79   41.9   5.0   NNE   0.83  11.0    NE   46.0   48.0   45.9   53.0  30.169  0.00  0.00   275     3.94    383     1.0  0.07   1.2   0.117   0.000   69.7    45   47.4   67.6   8.46  .0748    0.000   204    7    100.0   10 
 1/23/21 12:50p   48.3   48.3   48.0    79   42.1   5.0   NNE   0.83   9.0   NNE   46.2   48.2   46.1   57.4  30.168  0.00  0.00   429     6.15    482     1.1  0.08   1.1   0.116   0.000   69.8    45   47.5   67.7   8.45  .0747    0.000   202    7    100.0   10 
 1/23/21  1:00p   48.3   48.4   48.2    78   41.8   5.0    NE   0.83   9.0   ENE   46.2   48.1   46.0   58.0  30.169  0.00  0.00   448     6.42    490     1.0  0.07   1.1   0.116   0.000   69.9    45   47.6   67.7   8.45  .0747    0.006   201    7    100.0   10 
 1/23/21  1:10p   48.8   48.8   48.3    77   41.9   5.0     N   0.83   9.0   NNE   46.8   48.6   46.6   59.9  30.170  0.00  0.00   478     6.85    610     1.1  0.08   1.2   0.113   0.000   69.9    45   47.6   67.7   8.45  .0747    0.000   203    7    100.0   10 
 1/23/21  1:20p   48.7   48.9   48.6    77   41.8   4.0   NNE   0.67   7.0     N   47.4   48.5   47.2   53.9  30.171  0.00  0.00   251     3.60    294     0.9  0.06   0.9   0.113   0.000   69.9    45   47.6   67.7   8.45  .0747    0.000   204    7    100.0   10 
 1/23/21  1:30p   48.4   48.7   48.4    77   41.5   4.0     N   0.67   9.0   ENE   47.0   48.2   46.8   53.2  30.169  0.00  0.00   239     3.43    313     0.8  0.06   0.9   0.115   0.000   70.0    45   47.7   67.8   8.45  .0747    0.000   203    7    100.0   10 
 1/23/21  1:40p   48.4   48.6   48.4    77   41.5   4.0     N   0.67   7.0   NNE   47.0   48.2   46.8   53.6  30.166  0.00  0.00   256     3.67    311     0.8  0.06   0.9   0.115   0.000   70.0    45   47.7   67.8   8.45  .0747    0.000   202    7    100.0   10 
 1/23/21  1:50p   48.8   48.8   48.4    78   42.2   5.0     N   0.83   8.0     N   46.8   48.6   46.6   56.7  30.167  0.00  0.00   358     5.13    534     0.8  0.06   0.9   0.113   0.000   70.0    45   47.7   67.8   8.45  .0747    0.000   202    7    100.0   10 
 1/23/21  2:00p   48.9   49.2   48.9    76   41.7   5.0   NNE   0.83  10.0    NE   46.9   48.6   46.6   55.6  30.164  0.00  0.00   323     4.63    633     0.8  0.06   1.0   0.112   0.000   70.0    45   47.7   67.8   8.45  .0747    0.006   205    7    100.0   10 
 1/23/21  2:10p   48.4   49.0   48.4    76   41.2   5.0   NNE   0.83   9.0    NE   46.3   48.1   46.0   51.7  30.167  0.00  0.00   215     3.08    239     0.6  0.04   0.7   0.115   0.000   70.0    46   48.3   67.9   8.65  .0747    0.000   202    7    100.0   10 
 1/23/21  2:20p   48.0   48.4   48.0    77   41.1   6.0     N   1.00  11.0    NE   45.3   47.8   45.1   50.0  30.166  0.00  0.00   186     2.67    190     0.5  0.04   0.6   0.118   0.000   70.0    46   48.3   67.9   8.65  .0747    0.000   200    7    100.0   10 
 1/23/21  2:30p   47.9   48.0   47.8    77   41.0   4.0   NNE   0.67   8.0     N   46.5   47.7   46.3   50.9  30.167  0.00  0.00   179     2.57    190     0.5  0.04   0.5   0.119   0.000   70.0    46   48.3   67.9   8.65  .0747    0.000   201    7    100.0   10 
 1/23/21  2:40p   47.7   47.9   47.7    77   40.8   5.0     N   0.83   9.0     N   45.5   47.5   45.3   48.9  30.167  0.00  0.00   148     2.12    163     0.2  0.01   0.5   0.120   0.000   70.0    46   48.3   67.9   8.65  .0747    0.000   202    7    100.0   10 
Email: AdamSPAM@StormwatchersRetreat.com (To send me email remove the word 'SPAM' from my email address.)